createdAt,value
2018-09-26T00:00:18.275Z,9.10
2018-09-26T00:01:18.233Z,8.70
2018-09-26T00:02:18.212Z,8.60
2018-09-26T00:03:18.201Z,8.40
2018-09-26T00:04:18.169Z,8.10
2018-09-26T00:05:18.151Z,8.90
2018-09-26T00:06:18.129Z,8.70
2018-09-26T00:07:18.117Z,8.20
2018-09-26T00:08:18.178Z,8.30
2018-09-26T00:09:18.070Z,7.90
2018-09-26T00:10:18.050Z,8.00
2018-09-26T00:11:18.036Z,7.90
2018-09-26T00:12:18.006Z,8.10
2018-09-26T00:13:17.989Z,7.70
2018-09-26T00:14:17.968Z,8.10
2018-09-26T00:15:17.943Z,8.90
2018-09-26T00:16:17.922Z,8.20
2018-09-26T00:17:17.908Z,8.40
2018-09-26T00:18:17.881Z,7.90
2018-09-26T00:19:18.014Z,8.80
2018-09-26T00:20:17.838Z,8.40
2018-09-26T00:21:17.821Z,8.90
2018-09-26T00:22:17.800Z,8.40
2018-09-26T00:23:17.775Z,8.50
2018-09-26T00:24:17.756Z,8.10
2018-09-26T00:25:17.793Z,8.50
2018-09-26T00:26:17.712Z,8.60
2018-09-26T00:27:17.695Z,8.70
2018-09-26T00:28:17.670Z,8.70
2018-09-26T00:29:17.661Z,8.80
2018-09-26T00:30:17.634Z,8.40
2018-09-26T00:31:17.610Z,8.60
2018-09-26T00:32:17.588Z,8.60
2018-09-26T00:33:17.566Z,9.10
2018-09-26T00:34:17.547Z,8.80
2018-09-26T00:35:17.530Z,8.80
2018-09-26T00:36:17.622Z,9.10
2018-09-26T00:37:17.483Z,9.10
2018-09-26T00:38:17.464Z,9.20
2018-09-26T00:39:17.447Z,9.20
2018-09-26T00:40:17.420Z,8.80
2018-09-26T00:41:17.407Z,8.70
2018-09-26T00:42:17.381Z,8.90
2018-09-26T00:43:17.377Z,8.50
2018-09-26T00:44:17.367Z,8.40
2018-09-26T00:45:17.324Z,8.80
2018-09-26T00:46:17.299Z,9.10
2018-09-26T00:47:17.276Z,9.50
2018-09-26T00:48:17.266Z,8.70
2018-09-26T00:49:17.233Z,8.70
2018-09-26T00:50:17.217Z,9.80
2018-09-26T00:51:17.202Z,9.00
2018-09-26T00:52:17.176Z,8.80
2018-09-26T00:53:17.152Z,8.90
2018-09-26T00:54:17.138Z,9.00
2018-09-26T00:55:17.109Z,8.60
2018-09-26T00:56:17.089Z,8.30
2018-09-26T00:57:17.070Z,8.10
2018-09-26T00:58:17.045Z,8.00
2018-09-26T00:59:17.026Z,8.00
2018-09-26T01:00:17.004Z,7.90
2018-09-26T01:01:17.021Z,8.70
2018-09-26T01:02:16.964Z,7.60
2018-09-26T01:03:17.056Z,7.30
2018-09-26T01:04:16.920Z,7.60
2018-09-26T01:05:16.899Z,6.90
2018-09-26T01:06:16.879Z,6.70
2018-09-26T01:07:16.860Z,6.50
2018-09-26T01:08:16.836Z,6.40
2018-09-26T01:09:16.818Z,6.10
2018-09-26T01:10:16.796Z,6.70
2018-09-26T01:11:16.930Z,5.90
2018-09-26T01:12:16.758Z,6.00
2018-09-26T01:13:16.734Z,5.90
2018-09-26T01:14:16.774Z,5.90
2018-09-26T01:15:16.700Z,5.70
2018-09-26T01:16:16.680Z,5.70
2018-09-26T01:17:16.651Z,6.20
2018-09-26T01:18:16.630Z,5.90
2018-09-26T01:19:16.635Z,5.60
2018-09-26T01:20:16.592Z,6.10
2018-09-26T01:21:16.568Z,5.70
2018-09-26T01:22:16.555Z,5.40
2018-09-26T01:23:16.534Z,5.40
2018-09-26T01:24:16.506Z,5.60
2018-09-26T01:25:16.484Z,5.60
2018-09-26T01:26:16.463Z,5.30
2018-09-26T01:27:16.442Z,5.30
2018-09-26T01:28:16.418Z,5.90
2018-09-26T01:29:16.401Z,5.10
2018-09-26T01:30:16.385Z,5.30
2018-09-26T01:31:16.357Z,5.40
2018-09-26T01:32:16.337Z,5.00
2018-09-26T01:33:16.338Z,5.20
2018-09-26T01:34:16.295Z,5.00
2018-09-26T01:35:16.276Z,5.30
2018-09-26T01:36:16.300Z,5.10
2018-09-26T01:37:16.231Z,5.40
2018-09-26T01:38:16.212Z,5.50
2018-09-26T01:39:16.192Z,5.20
2018-09-26T01:40:16.171Z,5.00
2018-09-26T01:41:16.212Z,4.70
2018-09-26T01:42:16.126Z,5.00
2018-09-26T01:43:16.110Z,4.90
2018-09-26T01:44:16.087Z,4.90
2018-09-26T01:45:16.066Z,5.00
2018-09-26T01:46:16.045Z,4.90
2018-09-26T01:47:16.025Z,5.20
2018-09-26T01:48:16.005Z,5.50
2018-09-26T01:49:15.984Z,5.80
2018-09-26T01:50:15.962Z,4.90
2018-09-26T01:51:15.944Z,4.80
2018-09-26T01:52:15.920Z,4.80
2018-09-26T01:53:15.902Z,5.20
2018-09-26T01:54:15.882Z,4.90
2018-09-26T01:55:15.858Z,4.70
2018-09-26T01:56:15.835Z,4.90
2018-09-26T01:57:15.816Z,4.80
2018-09-26T01:58:15.794Z,4.90
2018-09-26T01:59:15.780Z,4.80
2018-09-26T02:00:15.760Z,4.90
2018-09-26T02:01:15.732Z,5.10
2018-09-26T02:02:15.709Z,4.60
2018-09-26T02:03:15.703Z,5.30
2018-09-26T02:04:15.673Z,5.10
2018-09-26T02:05:15.654Z,4.40
2018-09-26T02:06:15.738Z,4.70
2018-09-26T02:07:15.604Z,4.70
2018-09-26T02:08:15.583Z,4.80
2018-09-26T02:09:15.663Z,5.00
2018-09-26T02:10:15.543Z,4.60
2018-09-26T02:11:15.522Z,4.90
2018-09-26T02:12:15.499Z,4.90
2018-09-26T02:13:15.479Z,4.60
2018-09-26T02:14:15.460Z,4.60
2018-09-26T02:15:15.438Z,4.90
2018-09-26T02:16:15.413Z,4.80
2018-09-26T02:17:15.396Z,5.20
2018-09-26T02:18:15.375Z,4.90
2018-09-26T02:19:15.351Z,4.80
2018-09-26T02:20:15.332Z,5.00
2018-09-26T02:21:15.311Z,4.90
2018-09-26T02:22:15.289Z,5.40
2018-09-26T02:23:15.266Z,4.90
2018-09-26T02:24:15.248Z,4.70
2018-09-26T02:25:15.246Z,4.50
2018-09-26T02:26:15.202Z,4.80
2018-09-26T02:27:15.181Z,5.00
2018-09-26T02:28:15.239Z,4.70
2018-09-26T02:29:15.140Z,5.10
2018-09-26T02:30:15.121Z,4.70
2018-09-26T02:31:15.113Z,4.70
2018-09-26T02:32:15.077Z,4.80
2018-09-26T02:33:15.059Z,4.80
2018-09-26T02:34:15.037Z,5.50
2018-09-26T02:35:15.017Z,4.70
2018-09-26T02:36:14.998Z,5.20
2018-09-26T02:37:14.973Z,5.10
2018-09-26T02:38:14.951Z,5.10
2018-09-26T02:39:14.935Z,4.50
2018-09-26T02:40:14.913Z,5.10
2018-09-26T02:41:14.887Z,5.10
2018-09-26T02:42:14.867Z,4.80
2018-09-26T02:43:14.845Z,5.60
2018-09-26T02:44:14.828Z,4.80
2018-09-26T02:45:14.803Z,4.60
2018-09-26T02:46:14.790Z,5.20
2018-09-26T02:47:14.758Z,4.80
2018-09-26T02:48:14.736Z,5.10
2018-09-26T02:49:14.717Z,4.90
2018-09-26T02:50:14.697Z,5.30
2018-09-26T02:51:14.676Z,4.50
2018-09-26T02:52:14.656Z,4.80
2018-09-26T02:53:14.631Z,4.90
2018-09-26T02:54:14.617Z,4.90
2018-09-26T02:55:14.600Z,5.70
2018-09-26T02:56:14.576Z,4.90
2018-09-26T02:57:14.546Z,4.80
2018-09-26T02:58:14.646Z,4.90
2018-09-26T02:59:14.505Z,5.20
2018-09-26T03:00:14.486Z,5.00
2018-09-26T03:01:14.517Z,4.90
2018-09-26T03:02:14.440Z,5.30
2018-09-26T03:03:14.421Z,4.90
2018-09-26T03:04:14.398Z,5.10
2018-09-26T03:05:14.376Z,5.00
2018-09-26T03:06:14.355Z,4.50
2018-09-26T03:07:14.337Z,4.60
2018-09-26T03:08:14.335Z,4.90
2018-09-26T03:09:14.290Z,4.80
2018-09-26T03:10:14.279Z,5.00
2018-09-26T03:11:14.248Z,4.50
2018-09-26T03:12:14.227Z,5.00
2018-09-26T03:13:14.205Z,4.90
2018-09-26T03:14:14.187Z,4.60
2018-09-26T03:15:14.162Z,4.40
2018-09-26T03:16:14.140Z,4.80
2018-09-26T03:17:14.227Z,5.20
2018-09-26T03:18:14.100Z,4.40
2018-09-26T03:19:14.079Z,4.70
2018-09-26T03:20:14.122Z,4.50
2018-09-26T03:21:14.032Z,4.60
2018-09-26T03:22:14.013Z,4.60
2018-09-26T03:23:13.992Z,4.70
2018-09-26T03:24:13.972Z,4.80
2018-09-26T03:25:13.957Z,5.20
2018-09-26T03:26:13.926Z,4.20
2018-09-26T03:27:13.905Z,4.70
2018-09-26T03:28:13.883Z,4.60
2018-09-26T03:29:13.863Z,4.10
2018-09-26T03:30:13.844Z,4.80
2018-09-26T03:31:13.821Z,4.60
2018-09-26T03:32:13.798Z,4.40
2018-09-26T03:33:13.777Z,4.80
2018-09-26T03:34:13.764Z,4.70
2018-09-26T03:35:13.741Z,4.50
2018-09-26T03:36:13.712Z,4.30
2018-09-26T03:37:13.700Z,5.00
2018-09-26T03:38:13.674Z,4.70
2018-09-26T03:39:13.655Z,5.10
2018-09-26T03:40:13.624Z,4.90
2018-09-26T03:41:13.606Z,4.30
2018-09-26T03:42:13.592Z,4.40
2018-09-26T03:43:13.563Z,4.30
2018-09-26T03:44:13.541Z,4.60
2018-09-26T03:45:13.522Z,4.80
2018-09-26T03:46:13.501Z,4.60
2018-09-26T03:47:13.477Z,4.50
2018-09-26T03:48:13.454Z,4.80
2018-09-26T03:49:13.435Z,4.90
2018-09-26T03:50:13.561Z,4.80
2018-09-26T03:51:13.391Z,4.60
2018-09-26T03:52:13.371Z,4.50
2018-09-26T03:53:13.347Z,4.80
2018-09-26T03:54:13.326Z,4.50
2018-09-26T03:55:13.304Z,4.80
2018-09-26T03:56:13.290Z,4.40
2018-09-26T03:57:13.261Z,4.80
2018-09-26T03:58:13.246Z,4.50
2018-09-26T03:59:13.221Z,4.50
2018-09-26T04:00:13.199Z,5.00
2018-09-26T04:01:13.174Z,5.10
2018-09-26T04:02:13.160Z,5.00
2018-09-26T04:03:13.134Z,4.50
2018-09-26T04:04:13.109Z,4.90
2018-09-26T04:05:13.091Z,4.90
2018-09-26T04:06:13.069Z,4.60
2018-09-26T04:07:13.045Z,4.40
2018-09-26T04:08:13.024Z,5.40
2018-09-26T04:09:13.005Z,4.50
2018-09-26T04:10:12.984Z,5.00
2018-09-26T04:11:12.960Z,4.60
2018-09-26T04:12:12.935Z,5.10
2018-09-26T04:13:13.040Z,5.50
2018-09-26T04:14:12.902Z,5.40
2018-09-26T04:15:13.021Z,5.40
2018-09-26T04:16:12.851Z,4.50
2018-09-26T04:17:12.829Z,4.80
2018-09-26T04:18:12.859Z,4.80
2018-09-26T04:19:12.789Z,5.00
2018-09-26T04:20:12.811Z,4.90
2018-09-26T04:21:12.744Z,4.80
2018-09-26T04:22:12.724Z,4.80
2018-09-26T04:23:12.781Z,5.20
2018-09-26T04:24:12.677Z,4.70
2018-09-26T04:25:12.657Z,4.90
2018-09-26T04:26:12.884Z,4.40
2018-09-26T04:27:12.779Z,5.10
2018-09-26T04:28:12.593Z,4.70
2018-09-26T04:29:12.591Z,4.10
2018-09-26T04:30:12.588Z,5.10
2018-09-26T04:31:12.533Z,4.80
2018-09-26T04:32:12.513Z,4.80
2018-09-26T04:33:12.687Z,5.10
2018-09-26T04:34:12.473Z,5.10
2018-09-26T04:35:12.442Z,4.90
2018-09-26T04:36:12.420Z,5.40
2018-09-26T04:37:12.403Z,4.90
2018-09-26T04:38:12.377Z,4.40
2018-09-26T04:39:12.355Z,4.80
2018-09-26T04:40:12.336Z,4.90
2018-09-26T04:41:12.321Z,4.90
2018-09-26T04:42:12.307Z,4.80
2018-09-26T04:43:12.286Z,4.70
2018-09-26T04:44:12.247Z,5.20
2018-09-26T04:45:12.239Z,5.00
2018-09-26T04:46:12.207Z,5.00
2018-09-26T04:47:12.188Z,5.20
2018-09-26T04:48:12.290Z,5.20
2018-09-26T04:49:12.143Z,4.90
2018-09-26T04:50:12.119Z,4.80
2018-09-26T04:51:12.098Z,5.10
2018-09-26T04:52:12.075Z,5.00
2018-09-26T04:53:12.066Z,4.70
2018-09-26T04:54:12.057Z,4.90
2018-09-26T04:55:12.020Z,5.10
2018-09-26T04:56:12.001Z,5.10
2018-09-26T04:57:11.969Z,4.40
2018-09-26T04:58:11.959Z,5.00
2018-09-26T04:59:11.924Z,4.40
2018-09-26T05:00:11.913Z,4.70
2018-09-26T05:01:11.884Z,4.80
2018-09-26T05:02:11.860Z,4.40
2018-09-26T05:03:11.840Z,4.60
2018-09-26T05:04:11.817Z,5.20
2018-09-26T05:05:11.796Z,5.10
2018-09-26T05:06:11.774Z,4.90
2018-09-26T05:07:11.816Z,4.30
2018-09-26T05:08:11.748Z,4.40
2018-09-26T05:09:11.713Z,4.40
2018-09-26T05:10:11.695Z,4.40
2018-09-26T05:11:11.667Z,4.30
2018-09-26T05:12:11.648Z,4.30
2018-09-26T05:13:11.626Z,3.90
2018-09-26T05:14:11.602Z,4.30
2018-09-26T05:15:11.585Z,3.80
2018-09-26T05:16:11.561Z,4.20
2018-09-26T05:17:11.540Z,4.00
2018-09-26T05:18:11.652Z,4.20
2018-09-26T05:19:11.498Z,4.20
2018-09-26T05:20:11.485Z,3.60
2018-09-26T05:21:11.512Z,4.00
2018-09-26T05:22:11.433Z,3.70
2018-09-26T05:23:11.478Z,4.10
2018-09-26T05:24:11.403Z,3.70
2018-09-26T05:25:11.374Z,4.30
2018-09-26T05:26:11.350Z,4.00
2018-09-26T05:27:11.329Z,3.60
2018-09-26T05:28:11.307Z,3.80
2018-09-26T05:29:11.282Z,4.00
2018-09-26T05:30:11.290Z,4.20
2018-09-26T05:31:11.261Z,3.70
2018-09-26T05:32:11.227Z,3.70
2018-09-26T05:33:11.203Z,3.70
2018-09-26T05:34:11.195Z,3.90
2018-09-26T05:35:11.157Z,4.70
2018-09-26T05:36:11.141Z,4.10
2018-09-26T05:37:11.116Z,4.00
2018-09-26T05:38:11.093Z,3.90
2018-09-26T05:39:11.074Z,3.60
2018-09-26T05:40:11.055Z,4.00
2018-09-26T05:41:11.032Z,3.90
2018-09-26T05:42:11.015Z,3.40
2018-09-26T05:43:10.997Z,3.70
2018-09-26T05:44:10.964Z,3.70
2018-09-26T05:45:10.946Z,3.80
2018-09-26T05:46:10.926Z,3.40
2018-09-26T05:47:10.901Z,3.70
2018-09-26T05:48:10.882Z,4.70
2018-09-26T05:49:10.860Z,3.70
2018-09-26T05:50:10.937Z,3.70
2018-09-26T05:51:10.816Z,4.00
2018-09-26T05:52:10.802Z,3.70
2018-09-26T05:53:10.776Z,3.30
2018-09-26T05:54:10.761Z,3.00
2018-09-26T05:55:10.731Z,3.50
2018-09-26T05:56:10.713Z,3.60
2018-09-26T05:57:10.690Z,3.40
2018-09-26T05:58:10.679Z,3.40
2018-09-26T05:59:10.678Z,3.60
2018-09-26T06:00:10.626Z,3.60
2018-09-26T06:01:10.605Z,3.50
2018-09-26T06:02:10.583Z,3.40
2018-09-26T06:03:10.563Z,3.20
2018-09-26T06:04:10.539Z,3.30
2018-09-26T06:05:10.521Z,3.80
2018-09-26T06:06:10.499Z,3.20
2018-09-26T06:07:10.488Z,3.00
2018-09-26T06:08:10.456Z,3.00
2018-09-26T06:09:10.444Z,3.40
2018-09-26T06:10:10.467Z,3.50
2018-09-26T06:11:10.392Z,3.30
2018-09-26T06:12:10.377Z,3.00
2018-09-26T06:13:10.366Z,2.80
2018-09-26T06:14:10.337Z,3.20
2018-09-26T06:15:10.309Z,2.70
2018-09-26T06:16:10.290Z,3.40
2018-09-26T06:17:10.265Z,3.20
2018-09-26T06:18:10.245Z,2.80
2018-09-26T06:19:10.226Z,3.10
2018-09-26T06:20:10.202Z,3.20
2018-09-26T06:21:10.182Z,3.10
2018-09-26T06:22:10.160Z,3.10
2018-09-26T06:23:10.144Z,3.40
2018-09-26T06:24:10.121Z,3.30
2018-09-26T06:25:10.101Z,3.50
2018-09-26T06:26:10.080Z,3.30
2018-09-26T06:27:10.060Z,2.70
2018-09-26T06:28:10.044Z,3.20
2018-09-26T06:29:10.013Z,3.20
2018-09-26T06:30:09.995Z,3.50
2018-09-26T06:31:09.974Z,3.70
2018-09-26T06:32:09.962Z,3.20
2018-09-26T06:33:09.938Z,3.40
2018-09-26T06:34:09.925Z,3.00
2018-09-26T06:35:09.919Z,3.30
2018-09-26T06:36:09.868Z,2.80
2018-09-26T06:37:09.854Z,3.00
2018-09-26T06:38:09.878Z,3.20
2018-09-26T06:39:09.818Z,3.40
2018-09-26T06:40:09.798Z,3.20
2018-09-26T06:41:09.772Z,3.70
2018-09-26T06:42:09.741Z,3.10
2018-09-26T06:43:09.722Z,3.40
2018-09-26T06:44:09.702Z,3.80
2018-09-26T06:45:09.681Z,3.30
2018-09-26T06:46:09.666Z,4.00
2018-09-26T06:47:09.642Z,3.70
2018-09-26T06:48:09.631Z,3.20
2018-09-26T06:49:09.608Z,3.80
2018-09-26T06:50:09.586Z,3.20
2018-09-26T06:51:09.559Z,2.90
2018-09-26T06:52:09.540Z,3.60
2018-09-26T06:53:09.519Z,3.30
2018-09-26T06:54:09.615Z,3.60
2018-09-26T06:55:09.486Z,4.30
2018-09-26T06:56:09.473Z,3.80
2018-09-26T06:57:09.445Z,3.40
2018-09-26T06:58:09.420Z,3.70
2018-09-26T06:59:09.398Z,3.90
2018-09-26T07:00:09.427Z,3.60
2018-09-26T07:01:09.355Z,3.20
2018-09-26T07:02:09.369Z,3.50
2018-09-26T07:03:09.318Z,3.40
2018-09-26T07:04:09.300Z,3.20
2018-09-26T07:05:09.384Z,3.10
2018-09-26T07:06:09.260Z,3.30
2018-09-26T07:07:09.244Z,3.60
2018-09-26T07:08:09.219Z,3.60
2018-09-26T07:09:09.198Z,3.70
2018-09-26T07:10:09.200Z,4.10
2018-09-26T07:11:09.158Z,3.90
2018-09-26T07:12:09.183Z,3.10
2018-09-26T07:13:09.118Z,3.10
2018-09-26T07:14:09.100Z,3.10
2018-09-26T07:15:09.079Z,3.20
2018-09-26T07:16:09.057Z,3.40
2018-09-26T07:17:09.040Z,3.60
2018-09-26T07:18:09.030Z,4.00
2018-09-26T07:19:09.000Z,3.10
2018-09-26T07:20:08.985Z,3.40
2018-09-26T07:21:08.968Z,3.30
2018-09-26T07:22:08.942Z,3.20
2018-09-26T07:23:08.926Z,3.50
2018-09-26T07:24:09.024Z,3.20
2018-09-26T07:25:08.883Z,3.80
2018-09-26T07:26:08.865Z,3.50
2018-09-26T07:27:08.853Z,3.10
2018-09-26T07:28:08.824Z,2.90
2018-09-26T07:29:08.812Z,3.30
2018-09-26T07:30:08.800Z,3.40
2018-09-26T07:31:08.773Z,3.00
2018-09-26T07:32:08.798Z,2.90
2018-09-26T07:33:08.733Z,3.20
2018-09-26T07:34:08.710Z,3.00
2018-09-26T07:35:08.699Z,4.10
2018-09-26T07:36:08.684Z,3.40
2018-09-26T07:37:08.653Z,3.50
2018-09-26T07:38:08.633Z,3.40
2018-09-26T07:39:08.623Z,2.80
2018-09-26T07:40:08.595Z,2.90
2018-09-26T07:41:08.582Z,3.00
2018-09-26T07:42:08.558Z,2.90
2018-09-26T07:43:08.535Z,2.70
2018-09-26T07:44:08.525Z,3.10
2018-09-26T07:45:08.507Z,3.00
2018-09-26T07:46:08.483Z,2.70
2018-09-26T07:47:08.460Z,3.00
2018-09-26T07:48:08.449Z,2.90
2018-09-26T07:49:08.422Z,3.30
2018-09-26T07:50:08.407Z,3.00
2018-09-26T07:51:08.386Z,3.00
2018-09-26T07:52:08.365Z,3.20
2018-09-26T07:53:08.384Z,3.10
2018-09-26T07:54:08.339Z,3.10
2018-09-26T07:55:08.328Z,3.00
2018-09-26T07:56:08.296Z,3.00
2018-09-26T07:57:08.279Z,3.00
2018-09-26T07:58:08.252Z,2.90
2018-09-26T07:59:08.294Z,3.00
2018-09-26T08:00:08.226Z,3.10
2018-09-26T08:01:08.197Z,3.40
2018-09-26T08:02:08.179Z,3.10
2018-09-26T08:03:08.157Z,3.30
2018-09-26T08:04:08.140Z,3.50
2018-09-26T08:05:08.124Z,2.90
2018-09-26T08:06:08.106Z,3.20
2018-09-26T08:07:08.104Z,2.90
2018-09-26T08:08:08.070Z,2.90
2018-09-26T08:09:08.051Z,3.10
2018-09-26T08:10:08.030Z,3.70
2018-09-26T08:11:08.031Z,3.00
2018-09-26T08:12:07.994Z,3.20
2018-09-26T08:13:07.975Z,2.90
2018-09-26T08:14:07.958Z,3.00
2018-09-26T08:15:07.950Z,3.00
2018-09-26T08:16:07.977Z,3.30
2018-09-26T08:17:07.905Z,3.00
2018-09-26T08:18:07.915Z,2.90
2018-09-26T08:19:07.888Z,3.10
2018-09-26T08:20:07.854Z,2.80
2018-09-26T08:21:07.839Z,3.50
2018-09-26T08:22:07.812Z,4.00
2018-09-26T08:23:07.794Z,3.10
2018-09-26T08:24:07.931Z,3.30
2018-09-26T08:25:07.759Z,2.90
2018-09-26T08:26:07.752Z,2.70
2018-09-26T08:27:07.786Z,3.10
2018-09-26T08:28:07.712Z,2.80
2018-09-26T08:29:07.686Z,3.30
2018-09-26T08:30:07.683Z,3.00
2018-09-26T08:31:07.658Z,3.00
2018-09-26T08:32:07.639Z,3.60
2018-09-26T08:33:07.614Z,2.70
2018-09-26T08:34:07.599Z,2.90
2018-09-26T08:35:07.584Z,2.80
2018-09-26T08:36:07.570Z,2.80
2018-09-26T08:37:07.549Z,3.20
2018-09-26T08:38:07.526Z,3.00
2018-09-26T08:39:07.511Z,2.70
2018-09-26T08:40:07.497Z,3.10
2018-09-26T08:41:07.477Z,3.20
2018-09-26T08:42:07.465Z,3.30
2018-09-26T08:43:07.460Z,3.10
2018-09-26T08:44:07.419Z,3.10
2018-09-26T08:45:07.405Z,2.90
2018-09-26T08:46:07.418Z,2.80
2018-09-26T08:47:07.377Z,3.00
2018-09-26T08:48:07.352Z,2.90
2018-09-26T08:49:07.386Z,2.80
2018-09-26T08:50:07.324Z,3.10
2018-09-26T08:51:07.307Z,2.90
2018-09-26T08:52:07.291Z,3.00
2018-09-26T08:53:07.262Z,2.70
2018-09-26T08:54:07.249Z,3.00
2018-09-26T08:55:07.232Z,2.70
2018-09-26T08:56:07.211Z,2.70
2018-09-26T08:57:07.195Z,2.60
2018-09-26T08:58:07.180Z,3.10
2018-09-26T08:59:07.161Z,2.80
2018-09-26T09:00:07.147Z,2.70
2018-09-26T09:01:07.131Z,3.00
2018-09-26T09:02:07.112Z,3.30
2018-09-26T09:03:07.105Z,2.60
2018-09-26T09:04:07.083Z,2.80
2018-09-26T09:05:07.115Z,2.90
2018-09-26T09:06:07.060Z,2.60
2018-09-26T09:07:07.025Z,2.60
2018-09-26T09:08:07.022Z,3.10
2018-09-26T09:09:07.002Z,2.50
2018-09-26T09:10:06.980Z,2.60
2018-09-26T09:11:06.965Z,2.50
2018-09-26T09:12:06.956Z,2.80
2018-09-26T09:13:07.003Z,2.70
2018-09-26T09:14:06.924Z,2.80
2018-09-26T09:15:06.898Z,2.60
2018-09-26T09:16:06.912Z,2.50
2018-09-26T09:17:06.866Z,2.80
2018-09-26T09:18:06.858Z,2.60
2018-09-26T09:19:06.834Z,2.40
2018-09-26T09:20:06.820Z,2.70
2018-09-26T09:21:06.804Z,2.70
2018-09-26T09:22:06.794Z,2.80
2018-09-26T09:23:06.778Z,2.80
2018-09-26T09:24:06.765Z,3.40
2018-09-26T09:25:06.740Z,2.60
2018-09-26T09:26:06.761Z,2.80
2018-09-26T09:27:06.765Z,2.50
2018-09-26T09:28:06.702Z,2.50
2018-09-26T09:29:06.681Z,3.30
2018-09-26T09:30:06.666Z,2.70
2018-09-26T09:31:06.662Z,2.80
2018-09-26T09:32:06.707Z,3.10
2018-09-26T09:33:06.619Z,3.00
2018-09-26T09:34:06.603Z,2.90
2018-09-26T09:35:06.638Z,3.10
2018-09-26T09:36:06.577Z,3.10
2018-09-26T09:37:06.557Z,2.90
2018-09-26T09:38:06.568Z,2.90
2018-09-26T09:39:06.530Z,3.20
2018-09-26T09:40:06.512Z,3.30
2018-09-26T09:41:06.516Z,2.60
2018-09-26T09:42:06.482Z,3.40
2018-09-26T09:43:06.470Z,3.30
2018-09-26T09:44:06.590Z,2.70
2018-09-26T09:45:06.440Z,3.10
2018-09-26T09:46:06.426Z,3.00
2018-09-26T09:47:06.410Z,3.40
2018-09-26T09:48:06.580Z,3.10
2018-09-26T09:49:06.394Z,3.10
2018-09-26T09:50:06.375Z,3.00
2018-09-26T09:51:06.515Z,3.00
2018-09-26T09:52:06.336Z,3.10
2018-09-26T09:53:06.324Z,3.70
2018-09-26T09:54:06.312Z,3.90
2018-09-26T09:55:06.349Z,3.60
2018-09-26T09:56:06.299Z,3.10
2018-09-26T09:57:06.267Z,3.40
2018-09-26T09:58:06.253Z,3.50
2018-09-26T09:59:06.239Z,2.80
2018-09-26T10:00:06.222Z,3.10
2018-09-26T10:01:06.213Z,3.10
2018-09-26T10:02:06.248Z,4.00
2018-09-26T10:03:06.338Z,3.30
2018-09-26T10:04:06.165Z,2.70
2018-09-26T10:05:06.152Z,3.30
2018-09-26T10:06:06.138Z,3.00
2018-09-26T10:07:06.125Z,3.40
2018-09-26T10:08:06.126Z,3.10
2018-09-26T10:09:06.101Z,3.40
2018-09-26T10:10:06.090Z,3.10
2018-09-26T10:11:06.074Z,3.40
2018-09-26T10:12:06.058Z,3.30
2018-09-26T10:13:06.046Z,3.30
2018-09-26T10:14:06.093Z,3.20
2018-09-26T10:15:06.027Z,3.40
2018-09-26T10:16:06.006Z,3.50
2018-09-26T10:17:05.993Z,3.40
2018-09-26T10:18:05.997Z,3.20
2018-09-26T10:19:05.969Z,3.20
2018-09-26T10:20:05.999Z,3.50
2018-09-26T10:21:05.940Z,3.30
2018-09-26T10:22:05.925Z,3.50
2018-09-26T10:23:05.924Z,3.10
2018-09-26T10:24:05.906Z,3.50
2018-09-26T10:25:05.939Z,3.60
2018-09-26T10:26:05.927Z,3.40
2018-09-26T10:27:05.862Z,3.60
2018-09-26T10:28:05.854Z,3.10
2018-09-26T10:29:05.834Z,3.70
2018-09-26T10:30:05.826Z,3.40
2018-09-26T10:31:05.989Z,3.10
2018-09-26T10:32:05.828Z,3.10
2018-09-26T10:33:05.789Z,3.10
2018-09-26T10:34:05.769Z,3.20
2018-09-26T10:35:05.822Z,3.40
2018-09-26T10:36:05.752Z,3.20
2018-09-26T10:37:05.734Z,3.60
2018-09-26T10:38:05.747Z,3.50
2018-09-26T10:39:05.708Z,3.60
2018-09-26T10:40:05.694Z,3.50
2018-09-26T10:41:05.696Z,3.00
2018-09-26T10:42:05.672Z,3.10
2018-09-26T10:43:05.655Z,3.00
2018-09-26T10:44:05.710Z,3.30
2018-09-26T10:45:05.639Z,3.30
2018-09-26T10:46:05.618Z,3.00
2018-09-26T10:47:05.604Z,2.70
2018-09-26T10:48:05.600Z,3.00
2018-09-26T10:49:05.581Z,3.20
2018-09-26T10:50:05.594Z,3.40
2018-09-26T10:51:05.568Z,3.10
2018-09-26T10:52:05.546Z,2.90
2018-09-26T10:53:05.535Z,3.20
2018-09-26T10:54:05.528Z,3.00
2018-09-26T10:55:05.534Z,2.80
2018-09-26T10:56:05.553Z,3.30
2018-09-26T10:57:05.484Z,3.20
2018-09-26T10:58:05.536Z,2.80
2018-09-26T10:59:05.459Z,2.90
2018-09-26T11:00:05.463Z,2.80
2018-09-26T11:01:05.453Z,2.70
2018-09-26T11:02:05.499Z,2.70
2018-09-26T11:03:05.417Z,3.00
2018-09-26T11:04:05.424Z,2.90
2018-09-26T11:05:05.397Z,3.20
2018-09-26T11:06:05.385Z,3.00
2018-09-26T11:07:05.371Z,2.70
2018-09-26T11:08:05.414Z,3.00
2018-09-26T11:09:05.345Z,3.30
2018-09-26T11:10:05.374Z,2.90
2018-09-26T11:11:05.328Z,3.00
2018-09-26T11:12:05.308Z,3.00
2018-09-26T11:13:05.303Z,3.30
2018-09-26T11:14:05.485Z,2.90
2018-09-26T11:15:05.292Z,3.00
2018-09-26T11:16:05.299Z,3.80
2018-09-26T11:17:05.254Z,3.10
2018-09-26T11:18:05.244Z,2.80
2018-09-26T11:19:05.226Z,3.00
2018-09-26T11:20:05.227Z,3.20
2018-09-26T11:21:05.262Z,3.20
2018-09-26T11:22:05.196Z,3.80
2018-09-26T11:23:05.182Z,2.90
2018-09-26T11:24:05.164Z,2.90
2018-09-26T11:25:05.154Z,4.90
2018-09-26T11:26:05.157Z,4.00
2018-09-26T11:27:05.134Z,3.10
2018-09-26T11:28:05.124Z,2.80
2018-09-26T11:29:05.111Z,3.30
2018-09-26T11:30:05.127Z,3.40
2018-09-26T11:31:05.098Z,2.80
2018-09-26T11:32:05.091Z,3.10
2018-09-26T11:33:05.065Z,3.50
2018-09-26T11:34:05.051Z,3.50
2018-09-26T11:35:05.048Z,3.90
2018-09-26T11:36:05.030Z,3.50
2018-09-26T11:37:05.034Z,3.10
2018-09-26T11:38:05.004Z,3.10
2018-09-26T11:39:04.994Z,3.00
2018-09-26T11:40:04.995Z,3.40
2018-09-26T11:41:04.978Z,3.40
2018-09-26T11:42:04.957Z,3.20
2018-09-26T11:43:04.946Z,3.20
2018-09-26T11:44:04.990Z,3.10
2018-09-26T11:45:04.933Z,3.40
2018-09-26T11:46:04.964Z,3.00
2018-09-26T11:47:04.915Z,3.40
2018-09-26T11:48:04.896Z,3.50
2018-09-26T11:49:04.872Z,3.30
2018-09-26T11:50:04.870Z,3.50
2018-09-26T11:51:04.852Z,3.30
2018-09-26T11:52:04.838Z,3.30
2018-09-26T11:53:04.823Z,3.30
2018-09-26T11:54:04.821Z,3.20
2018-09-26T11:55:04.798Z,3.10
2018-09-26T11:56:04.890Z,3.30
2018-09-26T11:57:04.775Z,2.90
2018-09-26T11:58:04.798Z,3.00
2018-09-26T11:59:04.756Z,3.20
2018-09-26T12:00:04.742Z,2.70
2018-09-26T12:01:04.722Z,3.40
2018-09-26T12:02:04.815Z,2.90
2018-09-26T12:03:04.695Z,2.60
2018-09-26T12:04:04.689Z,3.40
2018-09-26T12:05:04.670Z,2.90
2018-09-26T12:06:04.701Z,3.30
2018-09-26T12:07:04.727Z,3.20
2018-09-26T12:08:04.700Z,3.10
2018-09-26T12:09:04.621Z,2.80
2018-09-26T12:10:04.736Z,3.00
2018-09-26T12:11:04.591Z,2.80
2018-09-26T12:12:04.599Z,3.20
2018-09-26T12:13:04.655Z,3.00
2018-09-26T12:14:04.555Z,3.10
2018-09-26T12:15:04.560Z,3.00
2018-09-26T12:16:04.585Z,3.10
2018-09-26T12:17:04.509Z,2.90
2018-09-26T12:18:04.504Z,3.00
2018-09-26T12:19:04.512Z,3.10
2018-09-26T12:20:04.507Z,2.80
2018-09-26T12:21:04.452Z,2.80
2018-09-26T12:22:04.544Z,3.00
2018-09-26T12:23:04.445Z,2.90
2018-09-26T12:24:04.430Z,3.10
2018-09-26T12:25:04.412Z,3.10
2018-09-26T12:26:04.385Z,3.00
2018-09-26T12:27:04.370Z,3.30
2018-09-26T12:28:04.397Z,2.70
2018-09-26T12:29:04.341Z,3.10
2018-09-26T12:30:04.360Z,3.60
2018-09-26T12:31:04.322Z,3.20
2018-09-26T12:32:04.300Z,3.20
2018-09-26T12:33:04.290Z,3.00
2018-09-26T12:34:04.273Z,3.20
2018-09-26T12:37:31.139Z,3.10
2018-09-26T12:38:31.138Z,2.60
2018-09-26T12:39:31.117Z,3.20
2018-09-26T12:40:31.100Z,2.70
2018-09-26T12:41:31.143Z,3.50
2018-09-26T12:42:31.107Z,3.50
2018-09-26T12:43:31.049Z,3.20
2018-09-26T12:44:31.049Z,3.60
2018-09-26T12:45:31.019Z,4.50
2018-09-26T12:46:31.004Z,5.50
2018-09-26T12:47:30.989Z,2.90
2018-09-26T12:48:31.029Z,2.90
2018-09-26T12:49:30.958Z,3.30
2018-09-26T12:50:30.949Z,3.70
2018-09-26T12:51:30.937Z,3.10
2018-09-26T12:52:30.926Z,3.20
2018-09-26T12:53:31.016Z,2.90
2018-09-26T12:54:30.893Z,3.30
2018-09-26T12:55:30.871Z,3.40
2018-09-26T12:56:30.857Z,3.60
2018-09-26T12:57:30.964Z,3.50
2018-09-26T12:58:30.827Z,3.30
2018-09-26T12:59:30.815Z,3.30
2018-09-26T13:00:30.984Z,4.00
2018-09-26T13:01:30.782Z,3.00
2018-09-26T13:02:30.813Z,3.30
2018-09-26T13:03:30.761Z,3.00
2018-09-26T13:04:30.740Z,3.40
2018-09-26T13:05:30.729Z,3.40
2018-09-26T13:06:30.738Z,3.30
2018-09-26T13:07:30.697Z,5.30
2018-09-26T13:08:30.676Z,3.10
2018-09-26T13:09:30.663Z,2.90
2018-09-26T13:10:30.654Z,3.10
2018-09-26T13:11:30.652Z,3.10
2018-09-26T13:12:30.626Z,2.90
2018-09-26T13:13:30.687Z,3.00
2018-09-26T13:14:30.602Z,2.80
2018-09-26T13:15:30.579Z,2.80
2018-09-26T13:16:30.559Z,3.10
2018-09-26T13:17:30.541Z,3.00
2018-09-26T13:18:30.526Z,3.10
2018-09-26T13:19:30.510Z,3.10
2018-09-26T13:20:30.498Z,3.40